Time;durP1;ratioP1;P1;durP2;ratioP2;P2;SDS_P1;SDS_P2;PMS_P1;PMS_P2;Temp;Humidity;BMP_temperature;BMP_pressure;BME280_temperature;BME280_humidity;BME280_pressure;Samples;Min_cycle;Max_cycle;Signal;HPM_P1;HPM_P2
2023/10/03 00:01:40;;;;;;;42.17;19.10;;;17.40;99.90;;;;;;6188357;23;20051;-84
2023/10/03 00:04:10;;;;;;;42.88;19.08;;;17.40;99.90;;;;;;6187211;23;20021;-83
2023/10/03 00:06:39;;;;;;;40.30;18.60;;;17.30;99.90;;;;;;6183921;23;20029;-83
2023/10/03 00:09:08;;;;;;;40.50;20.08;;;17.30;99.90;;;;;;6157318;23;20106;-83
2023/10/03 00:11:35;;;;;;;42.72;19.67;;;17.30;99.90;;;;;;6189307;23;20079;-84
2023/10/03 00:14:03;;;;;;;54.08;22.20;;;17.30;99.90;;;;;;6167216;23;20020;-84
2023/10/03 00:16:29;;;;;;;43.47;18.63;;;17.30;99.90;;;;;;6191008;23;20024;-83
2023/10/03 00:18:54;;;;;;;43.85;19.05;;;17.30;99.90;;;;;;6187660;23;20472;-84
2023/10/03 00:21:20;;;;;;;44.67;18.42;;;17.30;99.90;;;;;;6189448;23;20028;-84
2023/10/03 00:23:46;;;;;;;42.08;17.95;;;17.40;99.90;;;;;;6184542;23;20024;-84
2023/10/03 00:26:16;;;;;;;40.42;18.20;;;17.30;99.90;;;;;;6181402;23;20036;-84
2023/10/03 00:28:42;;;;;;;40.30;17.45;;;17.30;99.90;;;;;;6180521;23;20025;-83
2023/10/03 00:31:09;;;;;;;36.97;18.00;;;17.30;99.90;;;;;;6179036;23;20101;-86
2023/10/03 00:33:36;;;;;;;37.58;18.80;;;17.30;99.90;;;;;;6181078;23;20099;-86
2023/10/03 00:36:03;;;;;;;36.13;16.92;;;17.30;99.90;;;;;;6154251;23;20025;-86
2023/10/03 00:38:29;;;;;;;42.55;17.65;;;17.30;99.90;;;;;;6180682;23;20041;-86
2023/10/03 00:40:55;;;;;;;37.58;17.75;;;17.20;99.90;;;;;;6180629;23;20024;-84
2023/10/03 00:43:22;;;;;;;39.05;17.13;;;17.20;99.90;;;;;;6178987;23;20017;-83
2023/10/03 00:45:51;;;;;;;33.45;16.50;;;17.20;99.90;;;;;;6179277;23;20357;-83
2023/10/03 00:48:18;;;;;;;39.05;16.77;;;17.20;99.90;;;;;;6179188;23;20421;-84
2023/10/03 00:50:45;;;;;;;35.50;17.75;;;17.20;99.90;;;;;;6179528;23;20059;-83
2023/10/03 00:53:13;;;;;;;34.30;16.85;;;17.10;99.90;;;;;;6181844;23;20029;-83
2023/10/03 00:55:41;;;;;;;35.20;15.65;;;17.10;99.90;;;;;;6178884;23;20029;-83
2023/10/03 01:00:53;;;;;;;36.92;17.13;;;17.00;99.90;;;;;;6181919;23;20013;-84
2023/10/03 01:03:32;;;;;;;41.47;16.50;;;17.00;99.90;;;;;;6179683;23;20025;-83
2023/10/03 01:06:04;;;;;;;34.80;15.27;;;17.00;99.90;;;;;;6179225;23;20025;-83
2023/10/03 01:08:39;;;;;;;34.53;15.07;;;17.10;99.90;;;;;;6179323;23;20025;-83
2023/10/03 01:11:15;;;;;;;36.83;15.35;;;17.10;99.90;;;;;;6178655;23;20361;-83
2023/10/03 01:13:47;;;;;;;38.38;16.27;;;17.10;99.90;;;;;;6180652;23;20017;-83
2023/10/03 01:16:31;;;;;;;38.13;15.20;;;17.20;99.90;;;;;;6179515;23;20103;-83
2023/10/03 01:19:10;;;;;;;35.45;15.68;;;17.10;99.90;;;;;;6181175;23;20029;-83
2023/10/03 01:21:37;;;;;;;37.40;15.57;;;17.20;99.90;;;;;;6181212;23;20021;-83
2023/10/03 01:24:07;;;;;;;37.55;15.63;;;17.20;99.90;;;;;;6181009;23;20051;-84
2023/10/03 01:26:32;;;;;;;33.38;14.00;;;17.20;99.90;;;;;;6180623;23;20025;-83
2023/10/03 01:28:59;;;;;;;34.90;14.30;;;17.30;99.90;;;;;;6180945;23;20362;-83
2023/10/03 01:31:27;;;;;;;36.88;14.73;;;17.30;99.90;;;;;;6182487;23;20020;-83
2023/10/03 01:33:52;;;;;;;35.28;14.77;;;17.40;99.90;;;;;;6180897;23;20457;-83
2023/10/03 01:36:18;;;;;;;32.42;14.15;;;17.40;99.90;;;;;;6180530;23;20028;-83
2023/10/03 01:38:45;;;;;;;34.03;13.30;;;17.40;99.90;;;;;;6180699;23;20017;-83
2023/10/03 01:41:12;;;;;;;38.45;14.90;;;17.40;99.90;;;;;;6155453;23;20025;-83
2023/10/03 01:43:44;;;;;;;39.83;14.57;;;17.40;99.90;;;;;;6180735;23;20053;-83
2023/10/03 01:46:12;;;;;;;38.95;15.35;;;17.50;99.90;;;;;;6180901;23;20033;-84
2023/10/03 01:48:38;;;;;;;34.13;13.75;;;17.50;99.90;;;;;;6180655;23;20013;-83
2023/10/03 01:51:04;;;;;;;37.17;13.55;;;17.50;99.90;;;;;;6180709;23;20027;-83
2023/10/03 01:53:30;;;;;;;42.55;15.25;;;17.50;99.90;;;;;;6180421;23;20017;-84
2023/10/03 01:55:57;;;;;;;42.35;15.52;;;17.50;99.90;;;;;;6180880;23;20029;-83
2023/10/03 01:58:24;;;;;;;35.17;14.02;;;17.50;99.90;;;;;;6130909;23;20083;-83
2023/10/03 02:00:50;;;;;;;41.92;15.23;;;17.50;99.90;;;;;;6155623;23;20029;-83
2023/10/03 02:03:18;;;;;;;38.80;15.27;;;17.50;99.90;;;;;;6182064;23;20021;-83
2023/10/03 02:05:44;;;;;;;42.10;15.85;;;17.60;99.90;;;;;;6155444;23;20467;-83
2023/10/03 02:08:17;;;;;;;36.15;14.70;;;17.50;99.90;;;;;;6181490;23;20079;-83
2023/10/03 02:10:50;;;;;;;35.33;14.48;;;17.60;99.90;;;;;;6182073;23;20044;-83
2023/10/03 02:13:17;;;;;;;34.58;14.38;;;17.60;99.90;;;;;;6155458;23;20024;-84
2023/10/03 02:15:44;;;;;;;35.63;14.73;;;17.60;99.90;;;;;;6131129;23;20100;-83
2023/10/03 02:18:12;;;;;;;35.45;14.57;;;17.60;99.90;;;;;;6181788;23;20032;-83
2023/10/03 02:20:52;;;;;;;38.08;14.45;;;17.60;99.90;;;;;;6155315;23;20182;-83
2023/10/03 02:23:25;;;;;;;37.75;14.48;;;17.60;99.90;;;;;;6154932;23;20052;-83
2023/10/03 02:26:11;;;;;;;40.38;14.23;;;17.60;99.90;;;;;;6155505;23;20475;-83
2023/10/03 02:28:39;;;;;;;32.05;13.05;;;17.60;99.90;;;;;;6154752;23;20025;-83
2023/10/03 02:31:07;;;;;;;31.45;13.02;;;17.70;99.90;;;;;;6155285;23;20107;-83
2023/10/03 02:33:40;;;;;;;39.03;15.18;;;17.60;99.90;;;;;;6181696;23;20100;-83
2023/10/03 02:36:07;;;;;;;;;;;17.70;99.90;;;;;;6182200;23;20060;-83
2023/10/03 02:38:38;;;;;;;37.33;13.75;;;17.70;99.90;;;;;;6130269;23;19991;-84
2023/10/03 02:41:10;;;;;;;32.22;13.07;;;17.70;99.90;;;;;;6181684;23;20023;-83
2023/10/03 02:43:42;;;;;;;39.05;14.90;;;17.70;99.90;;;;;;6155356;23;20021;-84
2023/10/03 02:46:11;;;;;;;33.28;12.27;;;17.70;99.90;;;;;;6181742;23;20059;-83
2023/10/03 02:48:38;;;;;;;33.42;13.35;;;17.70;99.90;;;;;;6155250;23;20358;-83
2023/10/03 02:51:05;;;;;;;36.35;14.45;;;17.70;99.90;;;;;;6181593;23;20020;-83
2023/10/03 02:53:31;;;;;;;37.78;14.85;;;17.70;99.90;;;;;;6181084;23;20044;-83
2023/10/03 02:55:58;;;;;;;35.25;13.20;;;17.70;99.90;;;;;;6181478;23;20021;-83
2023/10/03 02:58:24;;;;;;;32.00;14.30;;;17.70;99.90;;;;;;6154876;23;20017;-83
2023/10/03 03:00:54;;;;;;;42.40;15.40;;;17.70;99.90;;;;;;6181749;23;20083;-83
2023/10/03 03:03:22;;;;;;;39.35;14.85;;;17.70;99.90;;;;;;6154793;23;20033;-83
2023/10/03 03:05:49;;;;;;;38.45;13.55;;;17.70;99.90;;;;;;6154946;23;20154;-83
2023/10/03 03:10:41;;;;;;;34.85;13.68;;;17.70;99.90;;;;;;6155080;23;20532;-82
2023/10/03 03:13:13;;;;;;;38.60;14.52;;;17.80;99.90;;;;;;6155299;23;20052;-82
2023/10/03 03:15:44;;;;;;;35.45;14.35;;;17.80;99.90;;;;;;6155095;23;20029;-82
2023/10/03 03:18:09;;;;;;;35.08;13.85;;;17.80;99.90;;;;;;6181834;23;20020;-83
2023/10/03 03:20:42;;;;;;;32.92;14.13;;;17.80;99.90;;;;;;6154448;23;20445;-81
2023/10/03 03:23:10;;;;;;;35.83;15.48;;;17.70;99.90;;;;;;6155279;23;20697;-83
2023/10/03 03:28:03;;;;;;;37.25;14.10;;;17.80;99.90;;;;;;6181646;23;20017;-83
2023/10/03 03:32:58;;;;;;;35.05;14.32;;;17.80;99.90;;;;;;6181854;23;20096;-83
2023/10/03 03:35:24;;;;;;;36.47;14.13;;;17.80;99.90;;;;;;6155103;23;20021;-83
2023/10/03 03:37:55;;;;;;;32.53;13.30;;;17.80;99.90;;;;;;6159328;23;20454;-83
2023/10/03 03:40:43;;;;;;;37.15;13.35;;;17.80;99.90;;;;;;6161646;23;20021;-83
2023/10/03 03:43:12;;;;;;;35.78;13.30;;;17.80;99.90;;;;;;6183030;23;20457;-86
2023/10/03 03:45:39;;;;;;;31.98;12.82;;;17.80;99.90;;;;;;6155864;23;20028;-83
2023/10/03 03:48:06;;;;;;;33.75;13.63;;;17.80;99.90;;;;;;6182195;23;20020;-84
2023/10/03 03:50:32;;;;;;;34.30;14.50;;;17.80;99.90;;;;;;6181311;23;20344;-83
2023/10/03 03:53:02;;;;;;;36.75;15.27;;;17.80;99.90;;;;;;6181344;23;20331;-84
2023/10/03 03:55:31;;;;;;;37.63;14.48;;;17.80;99.90;;;;;;6154677;23;20024;-83
2023/10/03 03:57:59;;;;;;;34.90;13.88;;;17.80;99.90;;;;;;6180769;23;20544;-83
2023/10/03 04:00:28;;;;;;;33.17;12.77;;;17.80;99.90;;;;;;6180817;23;20028;-83
2023/10/03 04:02:57;;;;;;;35.17;12.35;;;17.80;99.90;;;;;;6154619;23;20051;-83
2023/10/03 04:05:25;;;;;;;38.22;14.40;;;17.80;99.90;;;;;;6154078;23;20021;-83
2023/10/03 04:07:51;;;;;;;37.15;14.00;;;17.80;99.90;;;;;;6154415;23;20029;-84
2023/10/03 04:10:18;;;;;;;33.33;12.52;;;17.80;99.90;;;;;;6181142;23;20357;-83
2023/10/03 04:12:43;;;;;;;35.45;13.93;;;17.80;99.90;;;;;;6181206;23;20017;-84
2023/10/03 04:15:18;;;;;;;32.72;13.80;;;17.80;99.90;;;;;;6154828;23;20051;-83
2023/10/03 04:17:45;;;;;;;32.55;13.48;;;17.80;99.90;;;;;;6181008;23;20021;-83
2023/10/03 04:20:53;;;;;;;33.00;13.43;;;17.80;99.90;;;;;;6154382;23;20016;-84
2023/10/03 04:23:00;;;;;;;32.88;12.90;;;17.80;99.90;;;;;;6142416;23;20029;-86
2023/10/03 04:25:26;;;;;;;33.65;13.32;;;17.80;99.90;;;;;;6180850;23;20071;-85
2023/10/03 04:27:54;;;;;;;29.40;12.27;;;17.80;99.90;;;;;;6181090;23;20350;-85
2023/10/03 04:30:21;;;;;;;33.92;12.52;;;17.80;99.90;;;;;;6181015;23;20453;-85
2023/10/03 04:32:47;;;;;;;35.47;13.52;;;17.80;99.90;;;;;;6181299;23;20021;-85
2023/10/03 04:35:14;;;;;;;31.98;13.13;;;17.80;99.90;;;;;;6129483;23;20059;-85
2023/10/03 04:37:43;;;;;;;31.25;13.25;;;17.90;99.90;;;;;;6154352;23;20052;-84
2023/10/03 04:40:20;;;;;;;37.00;12.63;;;17.90;99.90;;;;;;6180807;23;20041;-85
2023/10/03 04:42:46;;;;;;;28.98;11.77;;;17.90;99.90;;;;;;6154623;23;20087;-84
2023/10/03 04:45:14;;;;;;;29.65;11.60;;;17.90;99.90;;;;;;6154505;23;20032;-84
2023/10/03 04:47:44;;;;;;;32.80;11.77;;;17.90;99.90;;;;;;6180520;23;20025;-85
2023/10/03 04:50:10;;;;;;;29.55;12.23;;;17.90;99.90;;;;;;6130142;23;20134;-83
2023/10/03 04:52:37;;;;;;;37.50;12.38;;;17.90;99.90;;;;;;6182652;23;20017;-84
2023/10/03 04:55:03;;;;;;;28.45;12.18;;;17.90;99.90;;;;;;6182648;23;20071;-85
2023/10/03 04:57:29;;;;;;;32.50;12.48;;;17.90;99.90;;;;;;6182204;23;20025;-84
2023/10/03 05:00:03;;;;;;;32.55;12.65;;;17.90;99.90;;;;;;6131653;23;20029;-85
2023/10/03 05:02:30;;;;;;;31.58;11.80;;;17.90;99.90;;;;;;6155973;23;20092;-84
2023/10/03 05:04:55;;;;;;;30.58;11.82;;;17.90;99.90;;;;;;6132217;23;20024;-85
2023/10/03 05:07:23;;;;;;;27.23;10.98;;;17.90;99.90;;;;;;6156183;23;20024;-84
2023/10/03 05:09:51;;;;;;;29.80;12.13;;;17.90;99.90;;;;;;6156122;23;20029;-84
2023/10/03 05:12:17;;;;;;;32.47;12.70;;;18.00;99.90;;;;;;6182539;23;20025;-85
2023/10/03 05:14:45;;;;;;;29.17;12.05;;;18.00;99.90;;;;;;6155800;23;20019;-85
2023/10/03 05:17:11;;;;;;;30.63;11.57;;;18.00;99.90;;;;;;6155660;23;20083;-85
2023/10/03 05:19:36;;;;;;;25.30;10.45;;;18.00;99.90;;;;;;6182458;23;20033;-85
2023/10/03 05:22:03;;;;;;;25.52;10.77;;;18.10;99.90;;;;;;6182489;23;20071;-85
2023/10/03 05:24:32;;;;;;;27.40;10.63;;;18.10;99.90;;;;;;6182207;23;20079;-84
2023/10/03 05:26:58;;;;;;;26.08;11.02;;;18.10;99.90;;;;;;6155783;23;20035;-84
2023/10/03 05:29:27;;;;;;;24.70;10.02;;;18.10;99.90;;;;;;6155934;23;20033;-85
2023/10/03 05:31:54;;;;;;;27.73;10.38;;;18.10;99.90;;;;;;6181875;23;20017;-84
2023/10/03 05:34:22;;;;;;;27.65;10.00;;;18.20;99.90;;;;;;6155717;23;20025;-84
2023/10/03 05:36:51;;;;;;;22.15;8.98;;;18.20;99.90;;;;;;6155610;23;20028;-85
2023/10/03 05:39:18;;;;;;;24.20;8.70;;;18.20;99.90;;;;;;6155824;23;20096;-84
2023/10/03 05:41:44;;;;;;;23.83;9.63;;;18.30;99.90;;;;;;6182068;23;20025;-84
2023/10/03 05:44:11;;;;;;;20.80;9.15;;;18.30;99.90;;;;;;6155696;23;20025;-84
2023/10/03 05:46:43;;;;;;;23.88;8.85;;;18.30;99.90;;;;;;6182207;23;20025;-84
2023/10/03 05:49:09;;;;;;;22.73;9.10;;;18.30;99.90;;;;;;6182376;23;20036;-84
2023/10/03 05:51:35;;;;;;;24.85;9.55;;;18.30;99.90;;;;;;6182175;23;20055;-84
2023/10/03 05:54:02;;;;;;;18.85;8.18;;;18.40;99.90;;;;;;6155532;23;20021;-85
2023/10/03 05:56:28;;;;;;;25.13;8.48;;;18.40;99.90;;;;;;6157284;23;20088;-84
2023/10/03 05:58:54;;;;;;;24.42;8.60;;;18.40;99.90;;;;;;6181956;23;20020;-82
2023/10/03 06:01:20;;;;;;;31.63;8.65;;;18.40;99.90;;;;;;6179284;23;20346;-83
2023/10/03 06:03:46;;;;;;;20.63;7.20;;;18.40;99.90;;;;;;6182142;23;20024;-83
2023/10/03 06:06:12;;;;;;;22.73;7.45;;;18.50;99.90;;;;;;6180424;23;20075;-83
2023/10/03 06:08:37;;;;;;;22.40;7.32;;;18.50;99.90;;;;;;6180740;23;20053;-83
2023/10/03 06:11:04;;;;;;;21.70;7.18;;;18.50;99.90;;;;;;6180463;23;20064;-83
2023/10/03 06:13:29;;;;;;;23.67;7.70;;;18.50;99.90;;;;;;6180092;23;20084;-82
2023/10/03 06:15:59;;;;;;;19.88;7.10;;;18.50;99.90;;;;;;6180273;23;20029;-82
2023/10/03 06:18:27;;;;;;;15.45;6.05;;;18.50;99.90;;;;;;6180828;23;20461;-83
2023/10/03 06:20:53;;;;;;;14.35;6.45;;;18.50;99.90;;;;;;6182927;23;20059;-83
2023/10/03 06:23:20;;;;;;;22.38;7.63;;;18.50;99.90;;;;;;6185579;23;20035;-83
2023/10/03 06:25:47;;;;;;;13.70;6.05;;;18.50;99.90;;;;;;6186442;23;20120;-82
2023/10/03 06:28:13;;;;;;;19.80;5.68;;;18.50;99.90;;;;;;6182857;23;20021;-82
2023/10/03 06:30:38;;;;;;;14.82;4.72;;;18.50;99.90;;;;;;6180179;23;20099;-80
2023/10/03 06:33:05;;;;;;;14.18;5.32;;;18.50;99.90;;;;;;6182394;23;20345;-82
2023/10/03 06:35:32;;;;;;;17.25;5.38;;;18.50;99.90;;;;;;6182063;23;20021;-79
2023/10/03 06:37:58;;;;;;;13.48;4.85;;;18.50;99.90;;;;;;6181882;23;20660;-83
2023/10/03 06:40:23;;;;;;;16.92;4.40;;;18.50;99.90;;;;;;6155498;23;20067;-83
2023/10/03 06:42:49;;;;;;;12.88;5.00;;;18.50;99.90;;;;;;6180147;23;20021;-82
2023/10/03 06:45:15;;;;;;;13.75;4.95;;;18.50;99.90;;;;;;6179514;23;20017;-83
2023/10/03 06:47:41;;;;;;;16.20;5.18;;;18.50;99.90;;;;;;6179638;23;20021;-83
2023/10/03 06:50:07;;;;;;;13.70;4.88;;;18.50;99.90;;;;;;6181196;23;20078;-83
2023/10/03 06:52:35;;;;;;;17.33;5.25;;;18.50;99.90;;;;;;6181581;23;20021;-83
2023/10/03 06:55:04;;;;;;;16.00;5.05;;;18.50;99.90;;;;;;6181238;23;20025;-83
2023/10/03 06:57:32;;;;;;;15.88;4.03;;;18.50;99.90;;;;;;6181322;23;20035;-82
2023/10/03 06:59:58;;;;;;;9.27;3.80;;;18.50;99.90;;;;;;6180774;23;20104;-82
2023/10/03 07:02:23;;;;;;;15.20;4.57;;;18.50;99.90;;;;;;6154838;23;20388;-82
2023/10/03 07:04:49;;;;;;;9.80;3.72;;;18.50;99.90;;;;;;6154601;23;20017;-80
2023/10/03 07:07:15;;;;;;;10.32;3.97;;;18.50;99.90;;;;;;6180988;23;20025;-82
2023/10/03 07:09:41;;;;;;;13.10;4.47;;;18.50;99.90;;;;;;6154876;23;20077;-78
2023/10/03 07:12:09;;;;;;;11.00;3.83;;;18.50;99.90;;;;;;6129812;23;20025;-78
2023/10/03 07:14:35;;;;;;;13.43;4.13;;;18.50;99.90;;;;;;6153860;23;20028;-78
2023/10/03 07:17:03;;;;;;;12.82;4.00;;;18.50;99.90;;;;;;6154640;23;20021;-79
2023/10/03 07:19:30;;;;;;;12.20;3.83;;;18.50;99.90;;;;;;6181480;23;20428;-83
2023/10/03 07:21:56;;;;;;;12.35;3.50;;;18.50;99.90;;;;;;6181456;23;20025;-82
2023/10/03 07:24:24;;;;;;;13.05;4.07;;;18.50;99.90;;;;;;6181244;23;20023;-81
2023/10/03 07:26:51;;;;;;;10.88;3.67;;;18.50;99.90;;;;;;6181078;23;20075;-83
2023/10/03 07:29:17;;;;;;;9.82;3.70;;;18.50;99.90;;;;;;6180568;23;20025;-82
2023/10/03 07:31:44;;;;;;;11.82;4.20;;;18.50;99.90;;;;;;6154498;23;20025;-82
2023/10/03 07:34:10;;;;;;;8.25;3.95;;;18.50;99.90;;;;;;6181500;23;20456;-83
2023/10/03 07:36:36;;;;;;;10.40;4.03;;;18.50;99.90;;;;;;6181494;23;20028;-82
2023/10/03 07:39:03;;;;;;;10.20;3.70;;;18.60;99.90;;;;;;6180948;23;20060;-83
2023/10/03 07:41:29;;;;;;;10.13;4.15;;;18.60;99.90;;;;;;6154364;23;20071;-83
2023/10/03 07:43:56;;;;;;;11.32;4.30;;;18.50;99.90;;;;;;6154891;23;20025;-82
2023/10/03 07:46:27;;;;;;;15.25;4.10;;;18.50;99.90;;;;;;5155954;27;1309668;-66
2023/10/03 07:48:53;;;;;;;10.13;3.67;;;18.40;99.90;;;;;;5160506;27;20074;-66
2023/10/03 07:51:26;;;;;;;9.07;4.65;;;18.40;99.90;;;;;;5178687;27;20050;-66
2023/10/03 07:53:52;;;;;;;10.05;3.97;;;18.40;99.90;;;;;;5158828;22;20063;-66
2023/10/03 07:56:25;;;;;;;11.02;3.83;;;18.40;99.90;;;;;;5115427;28;20046;-68
2023/10/03 07:58:54;;;;;;;9.98;4.15;;;18.40;99.90;;;;;;5099887;28;20039;-66
2023/10/03 08:01:27;;;;;;;11.23;4.00;;;18.40;99.90;;;;;;5116004;28;20048;-65
2023/10/03 08:03:53;;;;;;;;;;;18.40;99.90;;;;;;5100001;28;20048;-68
2023/10/03 08:06:22;;;;;;;13.25;4.03;;;18.40;99.90;;;;;;5098784;28;19962;-67
2023/10/03 08:08:52;;;;;;;8.93;4.10;;;18.40;99.90;;;;;;5097669;28;20078;-67
2023/10/03 08:11:20;;;;;;;6.05;3.28;;;18.40;99.90;;;;;;5117153;28;20055;-67
2023/10/03 08:13:46;;;;;;;12.30;3.97;;;18.40;99.90;;;;;;5115518;28;20044;-68
2023/10/03 08:16:14;;;;;;;6.93;3.47;;;18.40;99.90;;;;;;5099264;28;20054;-67
2023/10/03 08:18:46;;;;;;;16.05;3.65;;;18.40;99.90;;;;;;5098031;28;20074;-70
2023/10/03 08:21:12;;;;;;;10.43;3.07;;;18.40;99.90;;;;;;5116879;28;20105;-66
2023/10/03 08:23:38;;;;;;;7.10;3.30;;;18.40;99.90;;;;;;5098950;28;20039;-65
2023/10/03 08:26:04;;;;;;;8.55;3.20;;;18.40;99.90;;;;;;5096213;28;20048;-66
2023/10/03 08:28:30;;;;;;;10.38;3.85;;;18.30;99.90;;;;;;5098633;28;20370;-67
2023/10/03 08:31:05;;;;;;;12.55;3.40;;;18.30;99.90;;;;;;5114740;28;20044;-67
2023/10/03 08:33:36;;;;;;;7.20;3.50;;;18.20;99.90;;;;;;5114930;28;20040;-66
2023/10/03 08:36:14;;;;;;;8.52;3.20;;;18.20;99.90;;;;;;5116312;28;20067;-67
2023/10/03 08:38:43;;;;;;;9.00;3.63;;;18.10;99.90;;;;;;5115875;28;20115;-65
2023/10/03 08:41:30;;;;;;;6.35;3.30;;;18.10;99.90;;;;;;5116712;28;20051;-66
2023/10/03 08:43:59;;;;;;;7.57;2.88;;;18.10;99.90;;;;;;5115059;28;20048;-65
2023/10/03 08:46:29;;;;;;;9.02;3.80;;;18.10;99.90;;;;;;5116966;28;20056;-65
2023/10/03 08:49:00;;;;;;;8.80;3.03;;;18.10;99.90;;;;;;5116170;28;20056;-65
2023/10/03 08:51:32;;;;;;;8.60;2.50;;;18.10;99.90;;;;;;5115705;28;20046;-66
2023/10/03 08:54:10;;;;;;;7.13;2.38;;;18.00;99.90;;;;;;5116606;28;20155;-66
2023/10/03 08:56:36;;;;;;;6.20;2.72;;;18.10;99.90;;;;;;5110679;28;20040;-66
2023/10/03 08:59:09;;;;;;;8.25;2.05;;;18.00;99.90;;;;;;5108013;28;20044;-65
2023/10/03 09:01:45;;;;;;;6.88;2.08;;;18.00;99.90;;;;;;5093357;28;20059;-65
2023/10/03 09:04:15;;;;;;;7.53;2.03;;;18.00;99.90;;;;;;5094536;28;20059;-66
2023/10/03 09:06:43;;;;;;;6.47;1.80;;;18.00;99.90;;;;;;5095837;28;20036;-65
2023/10/03 09:09:13;;;;;;;4.47;1.90;;;18.00;99.90;;;;;;5112720;28;20044;-66
2023/10/03 09:11:41;;;;;;;8.70;1.73;;;18.10;99.90;;;;;;5086971;28;20079;-65
2023/10/03 09:14:08;;;;;;;6.32;1.60;;;18.10;99.90;;;;;;5101413;28;20640;-65
2023/10/03 09:16:39;;;;;;;6.13;1.85;;;18.10;99.90;;;;;;5084103;28;20139;-64
2023/10/03 09:19:09;;;;;;;4.72;1.52;;;18.00;99.90;;;;;;5101114;28;20055;-66
2023/10/03 09:21:36;;;;;;;4.53;1.65;;;18.10;99.90;;;;;;5083174;28;20121;-67
2023/10/03 09:24:12;;;;;;;4.30;1.30;;;18.10;99.90;;;;;;5101794;28;20047;-67
2023/10/03 09:26:45;;;;;;;5.05;1.13;;;18.10;99.90;;;;;;5100203;28;20497;-66
2023/10/03 09:29:18;;;;;;;6.03;1.27;;;18.10;99.90;;;;;;5102176;28;20043;-67
2023/10/03 09:31:48;;;;;;;8.68;1.17;;;18.10;99.90;;;;;;5101349;28;20074;-66
2023/10/03 09:34:17;;;;;;;9.10;1.92;;;18.10;99.90;;;;;;5082836;28;20056;-66
2023/10/03 09:36:48;;;;;;;9.77;1.33;;;18.10;99.90;;;;;;5084188;28;20040;-66
2023/10/03 09:39:23;;;;;;;7.97;1.58;;;18.10;99.90;;;;;;5099753;28;20410;-67
2023/10/03 09:41:54;;;;;;;4.13;1.38;;;18.10;99.90;;;;;;5102653;28;20055;-67
2023/10/03 09:44:30;;;;;;;5.93;1.13;;;18.00;99.90;;;;;;5101369;28;20056;-67
2023/10/03 09:47:06;;;;;;;3.28;0.90;;;18.10;99.90;;;;;;5101296;28;20188;-67
2023/10/03 09:49:38;;;;;;;8.27;0.88;;;18.00;99.90;;;;;;5102053;28;20055;-65
2023/10/03 09:52:07;;;;;;;2.47;0.60;;;17.80;99.90;;;;;;5098276;28;20048;-67
2023/10/03 09:54:39;;;;;;;6.13;0.85;;;17.80;99.90;;;;;;5100940;28;20055;-67
2023/10/03 09:57:16;;;;;;;7.57;1.00;;;17.70;99.90;;;;;;5048181;28;20133;-67
2023/10/03 09:59:46;;;;;;;3.03;0.68;;;17.70;99.90;;;;;;5100220;28;20052;-66
2023/10/03 10:02:30;;;;;;;3.28;0.80;;;17.70;99.90;;;;;;5082363;28;20055;-66
2023/10/03 10:04:59;;;;;;;3.08;0.75;;;17.60;99.90;;;;;;5097828;28;20050;-67
2023/10/03 10:07:29;;;;;;;2.72;0.70;;;17.60;99.90;;;;;;5100129;28;20062;-67
2023/10/03 10:10:14;;;;;;;4.40;0.80;;;17.60;99.90;;;;;;5079460;28;20040;-66
2023/10/03 10:13:12;;;;;;;3.50;0.55;;;17.50;99.90;;;;;;5099720;28;20052;-66
2023/10/03 10:18:55;;;;;;;1.95;0.63;;;17.40;99.90;;;;;;5075049;28;20060;-67
2023/10/03 10:21:37;;;;;;;2.05;0.55;;;17.30;99.90;;;;;;5098656;28;20052;-66
2023/10/03 10:24:25;;;;;;;2.15;0.73;;;17.40;99.90;;;;;;5100549;28;20039;-66
2023/10/03 10:26:52;;;;;;;4.50;0.80;;;17.40;99.90;;;;;;5097861;28;20522;-67
2023/10/03 10:29:21;;;;;;;2.22;0.68;;;17.40;99.90;;;;;;5100493;28;20127;-66
2023/10/03 10:31:57;;;;;;;1.13;0.68;;;17.30;99.90;;;;;;5080988;28;20047;-66
2023/10/03 10:34:40;;;;;;;4.25;1.33;;;17.30;99.90;;;;;;5098559;28;20229;-67
2023/10/03 10:37:11;;;;;;;5.05;0.70;;;17.30;99.90;;;;;;5081707;28;20044;-66
2023/10/03 10:42:55;;;;;;;8.00;0.80;;;17.30;99.90;;;;;;5099342;28;20052;-67
2023/10/03 10:45:21;;;;;;;2.50;0.65;;;17.30;99.90;;;;;;5100143;28;20549;-66
2023/10/03 10:47:55;;;;;;;3.78;0.65;;;17.30;99.90;;;;;;5097659;28;20503;-66
2023/10/03 10:50:25;;;;;;;3.58;0.68;;;17.30;99.90;;;;;;5099701;28;20036;-66
2023/10/03 10:53:02;;;;;;;1.38;0.65;;;17.30;99.90;;;;;;5079428;28;20040;-64
2023/10/03 10:55:28;;;;;;;4.13;0.70;;;17.30;99.90;;;;;;5098993;28;20070;-66
2023/10/03 10:58:13;;;;;;;4.10;0.73;;;17.30;99.90;;;;;;5090210;28;20054;-66
2023/10/03 11:00:39;;;;;;;2.83;0.70;;;17.30;99.90;;;;;;5117742;28;20453;-66
2023/10/03 11:03:07;;;;;;;3.15;0.70;;;17.30;99.90;;;;;;5120362;28;20283;-66
2023/10/03 11:05:48;;;;;;;3.05;0.73;;;17.30;99.90;;;;;;5117082;28;20043;-66
2023/10/03 11:08:15;;;;;;;1.30;0.63;;;17.30;99.90;;;;;;5089043;28;20039;-66
2023/10/03 11:10:57;;;;;;;3.67;0.80;;;17.30;99.90;;;;;;5092153;28;20462;-66
2023/10/03 11:13:24;;;;;;;;;;;17.30;99.90;;;;;;5099522;28;20066;-66
2023/10/03 11:15:51;;;;;;;4.15;1.10;;;17.30;99.90;;;;;;5119692;28;19920;-70
2023/10/03 11:18:31;;;;;;;4.30;0.95;;;17.30;99.90;;;;;;5099023;28;20150;-66
2023/10/03 11:20:58;;;;;;;2.85;0.93;;;17.40;99.90;;;;;;5118974;28;20478;-68
2023/10/03 11:23:24;;;;;;;2.90;0.60;;;17.30;99.90;;;;;;5118971;28;20900;-66
2023/10/03 11:26:08;;;;;;;3.38;0.85;;;17.30;99.90;;;;;;5117817;28;20048;-66
2023/10/03 11:28:51;;;;;;;3.17;1.02;;;17.40;99.90;;;;;;5084330;28;20131;-67
2023/10/03 11:31:17;;;;;;;3.13;0.70;;;17.40;99.90;;;;;;5099112;28;20162;-67
2023/10/03 11:33:45;;;;;;;3.15;0.82;;;17.40;99.90;;;;;;5101096;28;20506;-66
2023/10/03 11:36:15;;;;;;;3.35;0.95;;;17.50;99.90;;;;;;5100567;28;20067;-66
2023/10/03 11:38:49;;;;;;;4.43;1.13;;;17.50;99.90;;;;;;5118008;28;20039;-67
2023/10/03 11:41:29;;;;;;;8.52;1.02;;;17.50;99.90;;;;;;5119987;28;20056;-66
2023/10/03 11:43:57;;;;;;;5.88;1.25;;;17.50;99.90;;;;;;5083469;28;20047;-66
2023/10/03 11:46:23;;;;;;;2.15;0.80;;;17.50;99.90;;;;;;5104434;28;20069;-66
2023/10/03 11:48:59;;;;;;;5.28;1.20;;;17.50;99.90;;;;;;5106217;28;20044;-66
2023/10/03 11:51:29;;;;;;;3.53;1.00;;;17.40;99.90;;;;;;5106310;28;20040;-66
2023/10/03 11:53:58;;;;;;;1.27;0.85;;;17.40;99.90;;;;;;5099035;28;20094;-66
2023/10/03 11:56:23;;;;;;;3.25;0.90;;;17.40;99.90;;;;;;5108911;28;20040;-65
2023/10/03 11:58:54;;;;;;;4.03;1.88;;;17.40;99.90;;;;;;5099447;28;20039;-66
2023/10/03 12:01:23;;;;;;;1.75;0.93;;;17.20;99.90;;;;;;5116753;28;20107;-66
2023/10/03 12:03:53;;;;;;;5.07;0.90;;;17.20;99.90;;;;;;5092691;28;20060;-66
2023/10/03 12:06:18;;;;;;;1.45;0.68;;;17.10;99.90;;;;;;5088180;28;20047;-66
2023/10/03 12:08:44;;;;;;;2.70;0.70;;;17.00;99.90;;;;;;5117081;28;20051;-66
2023/10/03 12:11:12;;;;;;;2.30;0.90;;;17.00;99.90;;;;;;5118998;28;20406;-66
2023/10/03 12:13:38;;;;;;;5.45;1.23;;;16.90;99.90;;;;;;5097890;28;20467;-67
2023/10/03 12:16:04;;;;;;;6.85;1.10;;;16.80;99.90;;;;;;5099058;28;20059;-67
2023/10/03 12:18:30;;;;;;;5.82;1.27;;;16.60;99.90;;;;;;5112383;28;20048;-67
2023/10/03 12:20:56;;;;;;;3.85;1.00;;;16.50;99.90;;;;;;5118654;28;20622;-68
2023/10/03 12:23:22;;;;;;;3.08;1.40;;;16.50;99.90;;;;;;5116846;28;20138;-67
2023/10/03 12:25:48;;;;;;;4.43;1.38;;;16.30;99.90;;;;;;5119126;28;20074;-66
2023/10/03 12:28:16;;;;;;;;;;;16.30;99.90;;;;;;5139990;28;20078;-67
2023/10/03 12:30:42;;;;;;;4.03;1.42;;;16.20;99.90;;;;;;5137014;27;19970;-67
2023/10/03 12:33:16;;;;;;;5.57;1.80;;;16.30;99.90;;;;;;5122881;27;21234;-67
2023/10/03 12:35:41;;;;;;;8.07;1.80;;;16.40;99.90;;;;;;5121997;27;20399;-67
2023/10/03 12:38:11;;;;;;;5.63;1.80;;;16.40;99.90;;;;;;5141539;27;20463;-67
2023/10/03 12:40:36;;;;;;;6.03;2.30;;;16.60;99.90;;;;;;5123378;27;20402;-67
2023/10/03 12:43:02;;;;;;;6.13;2.17;;;16.50;99.90;;;;;;5139959;27;20441;-67
2023/10/03 12:45:28;;;;;;;6.90;2.10;;;16.50;99.90;;;;;;5106349;27;20448;-70
2023/10/03 12:47:54;;;;;;;7.28;2.38;;;16.50;99.90;;;;;;5103579;27;20437;-74
2023/10/03 12:50:25;;;;;;;6.68;2.00;;;16.50;99.90;;;;;;5106231;27;20399;-70
2023/10/03 12:52:52;;;;;;;6.55;2.28;;;16.60;99.90;;;;;;5120940;27;20411;-71
2023/10/03 12:55:19;;;;;;;5.70;2.03;;;16.50;99.90;;;;;;5125659;27;20423;-71
2023/10/03 12:57:50;;;;;;;9.17;2.40;;;16.60;99.90;;;;;;5145156;27;20406;-70
2023/10/03 13:00:23;;;;;;;7.28;2.00;;;16.50;99.90;;;;;;5122288;27;20414;-69
2023/10/03 13:02:50;;;;;;;10.40;2.30;;;16.60;99.90;;;;;;5122490;27;20414;-69
2023/10/03 13:05:18;;;;;;;7.85;1.98;;;16.70;99.90;;;;;;5103408;27;20427;-68